sensor_id;sensor_type;location;lat;lon;timestamp;pressure;altitude;pressure_sealevel;temperature;humidity
19112;BME280;9688;51.906;8.376;2022-07-17T00:02:31;101812.25;;;16.18;62.01
19112;BME280;9688;51.906;8.376;2022-07-17T00:05:36;101808.00;;;16.14;62.31
19112;BME280;9688;51.906;8.376;2022-07-17T00:08:41;101808.00;;;16.14;62.21
19112;BME280;9688;51.906;8.376;2022-07-17T00:11:46;101808.00;;;16.14;61.95
19112;BME280;9688;51.906;8.376;2022-07-17T00:14:52;101812.50;;;16.12;62.41
19112;BME280;9688;51.906;8.376;2022-07-17T00:17:57;101811.66;;;16.12;62.25
19112;BME280;9688;51.906;8.376;2022-07-17T00:21:02;101805.38;;;16.13;62.19
19112;BME280;9688;51.906;8.376;2022-07-17T00:24:06;101794.91;;;16.08;62.36
19112;BME280;9688;51.906;8.376;2022-07-17T00:27:11;101805.78;;;16.03;62.90
19112;BME280;9688;51.906;8.376;2022-07-17T00:30:17;101810.25;;;16.03;62.71
19112;BME280;9688;51.906;8.376;2022-07-17T00:33:22;101810.25;;;16.03;62.50
19112;BME280;9688;51.906;8.376;2022-07-17T00:36:26;101805.03;;;16.00;62.70
19112;BME280;9688;51.906;8.376;2022-07-17T00:46:40;101809.69;;;15.95;63.01
19112;BME280;9688;51.906;8.376;2022-07-17T00:49:26;101813.31;;;15.94;62.96
19112;BME280;9688;51.906;8.376;2022-07-17T00:52:13;101806.22;;;15.93;63.35
19112;BME280;9688;51.906;8.376;2022-07-17T00:55:18;101807.16;;;15.92;63.56
19112;BME280;9688;51.906;8.376;2022-07-17T00:58:24;101810.97;;;15.86;63.64
19112;BME280;9688;51.906;8.376;2022-07-17T01:01:30;101804.06;;;15.80;63.63
19112;BME280;9688;51.906;8.376;2022-07-17T01:04:37;101807.13;;;15.71;64.37
19112;BME280;9688;51.906;8.376;2022-07-17T01:07:42;101818.81;;;15.67;64.79
19112;BME280;9688;51.906;8.376;2022-07-17T01:10:47;101812.88;;;15.60;64.69
19112;BME280;9688;51.906;8.376;2022-07-17T01:13:51;101814.88;;;15.54;65.41
19112;BME280;9688;51.906;8.376;2022-07-17T01:16:57;101809.94;;;15.45;66.06
19112;BME280;9688;51.906;8.376;2022-07-17T01:20:08;101823.56;;;15.37;66.35
19112;BME280;9688;51.906;8.376;2022-07-17T01:23:16;101819.31;;;15.31;66.69
19112;BME280;9688;51.906;8.376;2022-07-17T01:26:21;101828.44;;;15.26;66.47
19112;BME280;9688;51.906;8.376;2022-07-17T01:29:25;101830.47;;;15.19;67.13
19112;BME280;9688;51.906;8.376;2022-07-17T01:32:31;101826.19;;;15.15;67.23
19112;BME280;9688;51.906;8.376;2022-07-17T01:35:36;101836.13;;;15.10;67.43
19112;BME280;9688;51.906;8.376;2022-07-17T01:41:38;101829.47;;;14.98;67.84
19112;BME280;9688;51.906;8.376;2022-07-17T01:44:43;101837.53;;;14.97;67.74
19112;BME280;9688;51.906;8.376;2022-07-17T01:47:29;101828.78;;;14.93;67.79
19112;BME280;9688;51.906;8.376;2022-07-17T01:50:15;101832.50;;;14.89;68.08
19112;BME280;9688;51.906;8.376;2022-07-17T01:53:01;101829.94;;;14.86;68.31
19112;BME280;9688;51.906;8.376;2022-07-17T01:55:47;101834.56;;;14.81;68.56
19112;BME280;9688;51.906;8.376;2022-07-17T01:58:34;101832.13;;;14.75;68.80
19112;BME280;9688;51.906;8.376;2022-07-17T02:01:20;101827.97;;;14.66;68.70
19112;BME280;9688;51.906;8.376;2022-07-17T02:04:06;101829.03;;;14.62;68.93
19112;BME280;9688;51.906;8.376;2022-07-17T02:06:53;101818.44;;;14.60;68.97
19112;BME280;9688;51.906;8.376;2022-07-17T02:09:38;101820.47;;;14.54;69.16
19112;BME280;9688;51.906;8.376;2022-07-17T02:12:24;101813.50;;;14.49;69.39
19112;BME280;9688;51.906;8.376;2022-07-17T02:15:12;101817.06;;;14.48;69.57
19112;BME280;9688;51.906;8.376;2022-07-17T02:17:58;101817.06;;;14.48;69.40
19112;BME280;9688;51.906;8.376;2022-07-17T02:20:44;101823.31;;;14.47;69.81
19112;BME280;9688;51.906;8.376;2022-07-17T02:23:34;101820.75;;;14.44;69.75
19112;BME280;9688;51.906;8.376;2022-07-17T02:26:19;101820.81;;;14.43;69.97
19112;BME280;9688;51.906;8.376;2022-07-17T02:29:05;101819.13;;;14.40;69.92
19112;BME280;9688;51.906;8.376;2022-07-17T02:31:53;101820.03;;;14.39;70.06
19112;BME280;9688;51.906;8.376;2022-07-17T02:34:38;101818.41;;;14.35;70.12
19112;BME280;9688;51.906;8.376;2022-07-17T02:37:24;101814.88;;;14.35;70.44
19112;BME280;9688;51.906;8.376;2022-07-17T02:42:52;101820.31;;;14.32;70.49
19112;BME280;9688;51.906;8.376;2022-07-17T02:45:56;101829.16;;;14.32;70.79
19112;BME280;9688;51.906;8.376;2022-07-17T02:49:03;101824.69;;;14.33;70.63
19112;BME280;9688;51.906;8.376;2022-07-17T02:52:07;101831.81;;;14.32;70.47
19112;BME280;9688;51.906;8.376;2022-07-17T02:55:11;101839.06;;;14.27;70.80
19112;BME280;9688;51.906;8.376;2022-07-17T02:58:16;101834.75;;;14.24;70.83
19112;BME280;9688;51.906;8.376;2022-07-17T03:01:21;101838.38;;;14.22;70.88
19112;BME280;9688;51.906;8.376;2022-07-17T03:04:26;101834.03;;;14.19;71.34
19112;BME280;9688;51.906;8.376;2022-07-17T03:07:31;101839.38;;;14.19;71.26
19112;BME280;9688;51.906;8.376;2022-07-17T03:10:35;101843.75;;;14.20;71.24
19112;BME280;9688;51.906;8.376;2022-07-17T03:13:39;101840.22;;;14.20;70.92
19112;BME280;9688;51.906;8.376;2022-07-17T03:16:44;101834.94;;;14.18;71.23
19112;BME280;9688;51.906;8.376;2022-07-17T03:19:50;101835.91;;;14.16;71.49
19112;BME280;9688;51.906;8.376;2022-07-17T03:22:54;101842.19;;;14.13;71.29
19112;BME280;9688;51.906;8.376;2022-07-17T03:25:59;101847.84;;;14.04;71.86
19112;BME280;9688;51.906;8.376;2022-07-17T03:29:03;101847.22;;;13.96;72.10
19112;BME280;9688;51.906;8.376;2022-07-17T03:32:07;101846.34;;;13.95;72.10
19112;BME280;9688;51.906;8.376;2022-07-17T03:35:15;101847.28;;;13.94;72.21
19112;BME280;9688;51.906;8.376;2022-07-17T03:41:16;101844.56;;;13.96;72.02
19112;BME280;9688;51.906;8.376;2022-07-17T03:44:20;101847.97;;;13.99;72.21
19112;BME280;9688;51.906;8.376;2022-07-17T03:47:31;101851.53;;;14.00;72.11
19112;BME280;9688;51.906;8.376;2022-07-17T03:50:18;101850.50;;;14.04;72.07
19112;BME280;9688;51.906;8.376;2022-07-17T03:53:04;101852.94;;;14.10;72.21
19112;BME280;9688;51.906;8.376;2022-07-17T03:55:49;101859.84;;;14.16;72.01
19112;BME280;9688;51.906;8.376;2022-07-17T03:58:35;101858.88;;;14.18;71.91
19112;BME280;9688;51.906;8.376;2022-07-17T04:01:21;101866.94;;;14.17;72.16
19112;BME280;9688;51.906;8.376;2022-07-17T04:04:07;101871.41;;;14.15;72.38
19112;BME280;9688;51.906;8.376;2022-07-17T04:06:54;101871.41;;;14.15;72.56
19112;BME280;9688;51.906;8.376;2022-07-17T04:09:39;101877.59;;;14.15;72.27
19112;BME280;9688;51.906;8.376;2022-07-17T04:12:25;101877.59;;;14.15;72.38
19112;BME280;9688;51.906;8.376;2022-07-17T04:15:11;101876.78;;;14.13;72.32
19112;BME280;9688;51.906;8.376;2022-07-17T04:18:17;101875.81;;;14.16;72.35
19112;BME280;9688;51.906;8.376;2022-07-17T04:21:04;101858.84;;;14.20;72.24
19112;BME280;9688;51.906;8.376;2022-07-17T04:23:52;101855.22;;;14.22;72.22
19112;BME280;9688;51.906;8.376;2022-07-17T04:26:37;101852.47;;;14.24;72.07
19112;BME280;9688;51.906;8.376;2022-07-17T04:29:23;101846.16;;;14.28;72.30
19112;BME280;9688;51.906;8.376;2022-07-17T04:32:09;101841.56;;;14.33;72.27
19112;BME280;9688;51.906;8.376;2022-07-17T04:34:55;101836.13;;;14.36;72.22
19112;BME280;9688;51.906;8.376;2022-07-17T04:37:40;101833.47;;;14.36;72.52
19112;BME280;9688;51.906;8.376;2022-07-17T04:40:28;101843.03;;;14.42;72.68
19112;BME280;9688;51.906;8.376;2022-07-17T05:41:15;101877.53;;;15.88;68.36
19112;BME280;9688;51.906;8.376;2022-07-17T05:44:20;101871.34;;;15.87;68.35
19112;BME280;9688;51.906;8.376;2022-07-17T05:47:25;101869.50;;;15.89;67.97
19112;BME280;9688;51.906;8.376;2022-07-17T05:50:30;101875.56;;;15.93;68.00
19112;BME280;9688;51.906;8.376;2022-07-17T05:53:35;101879.78;;;15.98;68.32
19112;BME280;9688;51.906;8.376;2022-07-17T05:56:40;101868.06;;;16.02;68.33
19112;BME280;9688;51.906;8.376;2022-07-17T05:59:45;101870.72;;;16.02;68.44
19112;BME280;9688;51.906;8.376;2022-07-17T06:02:51;101855.41;;;16.08;68.50
19112;BME280;9688;51.906;8.376;2022-07-17T06:05:56;101867.69;;;16.12;68.17
19112;BME280;9688;51.906;8.376;2022-07-17T06:09:01;101875.38;;;16.19;68.14
19112;BME280;9688;51.906;8.376;2022-07-17T06:12:07;101877.72;;;16.27;67.95
19112;BME280;9688;51.906;8.376;2022-07-17T06:15:12;101876.31;;;16.39;68.15
19112;BME280;9688;51.906;8.376;2022-07-17T06:18:16;101878.09;;;16.60;67.55
19112;BME280;9688;51.906;8.376;2022-07-17T06:21:21;101884.41;;;16.99;66.13
19112;BME280;9688;51.906;8.376;2022-07-17T06:24:25;101869.34;;;17.16;65.05
19112;BME280;9688;51.906;8.376;2022-07-17T06:27:31;101874.13;;;17.29;64.29
19112;BME280;9688;51.906;8.376;2022-07-17T06:30:36;101875.59;;;17.36;64.15
19112;BME280;9688;51.906;8.376;2022-07-17T06:33:40;101877.03;;;17.43;64.16
19112;BME280;9688;51.906;8.376;2022-07-17T06:36:44;101868.44;;;17.55;63.49
19112;BME280;9688;51.906;8.376;2022-07-17T06:39:50;101872.13;;;17.53;63.86
19112;BME280;9688;51.906;8.376;2022-07-17T06:45:52;101886.50;;;17.69;63.26
19112;BME280;9688;51.906;8.376;2022-07-17T06:48:57;101888.81;;;17.77;62.76
19112;BME280;9688;51.906;8.376;2022-07-17T06:52:01;101888.38;;;17.86;62.77
19112;BME280;9688;51.906;8.376;2022-07-17T06:55:07;101888.94;;;17.93;61.94
19112;BME280;9688;51.906;8.376;2022-07-17T06:58:12;101898.56;;;17.97;61.73
19112;BME280;9688;51.906;8.376;2022-07-17T07:01:17;101892.03;;;18.02;61.86
19112;BME280;9688;51.906;8.376;2022-07-17T07:04:21;101874.88;;;18.06;61.51
19112;BME280;9688;51.906;8.376;2022-07-17T07:07:26;101871.13;;;18.11;61.76
19112;BME280;9688;51.906;8.376;2022-07-17T07:10:31;101871.81;;;18.14;61.87
19112;BME280;9688;51.906;8.376;2022-07-17T07:13:36;101868.81;;;18.20;61.32
19112;BME280;9688;51.906;8.376;2022-07-17T07:16:41;101870.31;;;18.26;60.82
19112;BME280;9688;51.906;8.376;2022-07-17T07:19:46;101871.69;;;18.35;60.56
19112;BME280;9688;51.906;8.376;2022-07-17T07:22:50;101876.75;;;18.41;60.61
19112;BME280;9688;51.906;8.376;2022-07-17T07:25:55;101872.78;;;18.48;59.56
19112;BME280;9688;51.906;8.376;2022-07-17T07:29:00;101864.28;;;18.57;59.82
19112;BME280;9688;51.906;8.376;2022-07-17T07:32:08;101862.94;;;18.66;59.25
19112;BME280;9688;51.906;8.376;2022-07-17T07:35:13;101861.66;;;18.73;59.30
19112;BME280;9688;51.906;8.376;2022-07-17T08:41:39;101893.22;;;20.30;53.57
19112;BME280;9688;51.906;8.376;2022-07-17T09:46:42;101885.81;;;23.36;41.49
19112;BME280;9688;51.906;8.376;2022-07-17T09:49:48;101879.88;;;23.44;40.94
19112;BME280;9688;51.906;8.376;2022-07-17T10:41:29;101866.44;;;23.55;39.78
19112;BME280;9688;51.906;8.376;2022-07-17T10:44:35;101866.16;;;23.47;39.96
19112;BME280;9688;51.906;8.376;2022-07-17T10:47:22;101867.84;;;23.60;39.39
19112;BME280;9688;51.906;8.376;2022-07-17T10:50:08;101862.28;;;23.75;38.95
19112;BME280;9688;51.906;8.376;2022-07-17T10:53:05;101857.91;;;23.98;37.92
19112;BME280;9688;51.906;8.376;2022-07-17T10:55:53;101862.16;;;24.24;37.82
19112;BME280;9688;51.906;8.376;2022-07-17T10:58:42;101866.13;;;24.56;37.09
19112;BME280;9688;51.906;8.376;2022-07-17T11:01:29;101864.56;;;24.76;36.42
19112;BME280;9688;51.906;8.376;2022-07-17T11:04:14;101867.28;;;24.98;36.05
19112;BME280;9688;51.906;8.376;2022-07-17T11:07:06;101867.13;;;24.88;35.85
19112;BME280;9688;51.906;8.376;2022-07-17T11:09:52;101867.63;;;24.82;36.26
19112;BME280;9688;51.906;8.376;2022-07-17T11:12:39;101859.16;;;24.76;36.20
19112;BME280;9688;51.906;8.376;2022-07-17T11:15:27;101856.19;;;24.79;36.28
19112;BME280;9688;51.906;8.376;2022-07-17T11:18:15;101850.28;;;24.85;36.30
19112;BME280;9688;51.906;8.376;2022-07-17T11:21:03;101843.41;;;24.81;36.51
19112;BME280;9688;51.906;8.376;2022-07-17T11:23:52;101849.66;;;24.70;36.64
19112;BME280;9688;51.906;8.376;2022-07-17T11:26:39;101847.94;;;24.69;36.65
19112;BME280;9688;51.906;8.376;2022-07-17T11:29:24;101840.78;;;24.57;36.74
19112;BME280;9688;51.906;8.376;2022-07-17T11:32:12;101833.66;;;24.56;36.82
19112;BME280;9688;51.906;8.376;2022-07-17T11:34:58;101842.16;;;24.74;36.38
19112;BME280;9688;51.906;8.376;2022-07-17T11:37:44;101829.25;;;24.88;36.16
19112;BME280;9688;51.906;8.376;2022-07-17T11:44:58;101826.19;;;25.04;36.02
19112;BME280;9688;51.906;8.376;2022-07-17T11:47:45;101821.19;;;25.22;35.17
19112;BME280;9688;51.906;8.376;2022-07-17T11:50:32;101835.31;;;25.37;35.13
19112;BME280;9688;51.906;8.376;2022-07-17T11:53:19;101835.41;;;25.47;35.04
19112;BME280;9688;51.906;8.376;2022-07-17T11:56:05;101839.47;;;25.52;34.86
19112;BME280;9688;51.906;8.376;2022-07-17T11:58:51;101828.41;;;25.44;34.50
19112;BME280;9688;51.906;8.376;2022-07-17T12:01:42;101836.75;;;25.41;34.43
19112;BME280;9688;51.906;8.376;2022-07-17T12:04:31;101831.34;;;25.41;34.09
19112;BME280;9688;51.906;8.376;2022-07-17T12:07:17;101824.22;;;25.40;34.04
19112;BME280;9688;51.906;8.376;2022-07-17T12:10:13;101822.00;;;25.45;33.53
19112;BME280;9688;51.906;8.376;2022-07-17T12:13:01;101827.16;;;25.48;33.40
19112;BME280;9688;51.906;8.376;2022-07-17T12:15:49;101823.94;;;25.54;33.14
19112;BME280;9688;51.906;8.376;2022-07-17T12:18:35;101826.34;;;25.69;32.64
19112;BME280;9688;51.906;8.376;2022-07-17T12:21:22;101828.22;;;25.68;32.15
19112;BME280;9688;51.906;8.376;2022-07-17T12:24:07;101833.53;;;25.58;32.01
19112;BME280;9688;51.906;8.376;2022-07-17T12:26:58;101830.97;;;25.46;31.99
19112;BME280;9688;51.906;8.376;2022-07-17T12:29:45;101821.50;;;25.51;31.62
19112;BME280;9688;51.906;8.376;2022-07-17T12:32:40;101807.28;;;25.70;31.27
19112;BME280;9688;51.906;8.376;2022-07-17T12:35:26;101804.88;;;25.88;31.10
19112;BME280;9688;51.906;8.376;2022-07-17T12:38:14;101793.28;;;25.97;31.03
19112;BME280;9688;51.906;8.376;2022-07-17T12:41:14;101798.66;;;26.09;30.91
19112;BME280;9688;51.906;8.376;2022-07-17T13:39:56;101756.47;;;26.98;29.48
